Time;durP1;ratioP1;P1;durP2;ratioP2;P2;SDS_P1;SDS_P2;PMS_P1;PMS_P2;Temp;Humidity;BMP_temperature;BMP_pressure;BME280_temperature;BME280_humidity;BME280_pressure;Samples;Min_cycle;Max_cycle;Signal;HPM_P1;HPM_P2
2022/06/27 00:01:48;;;;;;;3.50;3.08;;;18.00;99.90;;;;;;5058196;28;20106;-84
2022/06/27 00:04:14;;;;;;;6.20;3.00;;;17.90;99.90;;;;;;5060071;28;20036;-82
2022/06/27 00:06:39;;;;;;;4.53;2.45;;;18.00;99.90;;;;;;5059289;28;20407;-85
2022/06/27 00:09:05;;;;;;;4.72;3.90;;;18.00;99.90;;;;;;5058504;28;20071;-84
2022/06/27 00:11:31;;;;;;;4.22;3.50;;;18.00;99.90;;;;;;5057326;28;20059;-85
2022/06/27 00:13:56;;;;;;;4.68;2.78;;;18.00;99.90;;;;;;5048077;28;20048;-84
2022/06/27 00:16:22;;;;;;;3.72;2.78;;;18.00;99.90;;;;;;5042674;28;20559;-84
2022/06/27 00:18:48;;;;;;;3.47;3.17;;;18.00;99.90;;;;;;5053266;28;20040;-85
2022/06/27 00:21:13;;;;;;;3.50;3.20;;;18.00;99.90;;;;;;5058678;28;20128;-81
2022/06/27 00:23:39;;;;;;;7.53;3.35;;;18.00;99.90;;;;;;5042386;28;20114;-85
2022/06/27 00:26:04;;;;;;;3.88;3.53;;;18.00;99.90;;;;;;5049112;28;20499;-84
2022/06/27 00:28:30;;;;;;;3.33;3.03;;;18.00;99.90;;;;;;5059378;28;20041;-84
2022/06/27 00:30:56;;;;;;;3.75;3.45;;;18.00;99.90;;;;;;5039106;28;20128;-84
2022/06/27 00:33:21;;;;;;;7.57;3.72;;;18.00;99.90;;;;;;5042470;28;20057;-85
2022/06/27 00:35:49;;;;;;;2.92;2.63;;;17.90;99.90;;;;;;5043526;28;20546;-86
2022/06/27 00:38:15;;;;;;;3.97;3.25;;;18.00;99.90;;;;;;5060732;28;20044;-85
2022/06/27 00:40:41;;;;;;;3.97;3.53;;;18.00;99.90;;;;;;5063874;28;20483;-86
2022/06/27 00:43:07;;;;;;;2.78;2.58;;;17.90;99.90;;;;;;5056115;28;20080;-86
2022/06/27 00:45:32;;;;;;;3.60;3.28;;;17.90;99.90;;;;;;5042514;28;20684;-85
2022/06/27 00:47:58;;;;;;;3.30;2.88;;;17.90;99.90;;;;;;5045618;28;20418;-85
2022/06/27 00:50:24;;;;;;;3.40;3.08;;;17.90;99.90;;;;;;5064461;28;20049;-85
2022/06/27 00:52:49;;;;;;;2.47;2.28;;;17.90;99.90;;;;;;5049307;28;20069;-86
2022/06/27 00:55:15;;;;;;;2.63;2.42;;;17.90;99.90;;;;;;5042205;28;20072;-86
2022/06/27 00:57:41;;;;;;;8.32;3.92;;;17.90;99.90;;;;;;5042761;28;20127;-86
2022/06/27 01:00:08;;;;;;;3.58;3.10;;;17.90;99.90;;;;;;5061059;28;20131;-86
2022/06/27 01:02:34;;;;;;;3.00;2.80;;;17.90;99.90;;;;;;5043139;28;20575;-86
2022/06/27 01:05:00;;;;;;;4.50;3.53;;;17.80;99.90;;;;;;5041848;28;20076;-87
2022/06/27 01:07:25;;;;;;;3.97;3.17;;;17.80;99.90;;;;;;5025652;28;20115;-86
2022/06/27 01:09:52;;;;;;;4.63;3.95;;;17.80;99.90;;;;;;5041801;28;20053;-87
2022/06/27 01:12:18;;;;;;;4.47;3.10;;;17.80;99.90;;;;;;5054363;22;20053;-84
2022/06/27 01:14:44;;;;;;;3.75;3.45;;;17.80;99.90;;;;;;5021451;28;20045;-84
2022/06/27 01:17:11;;;;;;;3.30;3.00;;;17.80;99.90;;;;;;5023631;28;20084;-83
2022/06/27 01:19:39;;;;;;;3.33;2.70;;;17.70;99.90;;;;;;5023162;28;20041;-83
2022/06/27 01:22:07;;;;;;;4.00;3.47;;;17.80;99.90;;;;;;5023366;28;20077;-84
2022/06/27 01:24:32;;;;;;;5.35;3.60;;;17.80;99.90;;;;;;5023451;28;20087;-84
2022/06/27 01:26:58;;;;;;;4.00;2.75;;;17.70;99.90;;;;;;5022822;28;20120;-84
2022/06/27 01:29:23;;;;;;;4.40;3.35;;;17.70;99.90;;;;;;5023122;28;20042;-84
2022/06/27 01:31:49;;;;;;;6.25;3.38;;;17.70;99.90;;;;;;5022937;28;20492;-84
2022/06/27 01:34:16;;;;;;;4.30;3.47;;;17.70;99.90;;;;;;5022225;28;20610;-84
2022/06/27 01:36:42;;;;;;;3.85;2.90;;;17.70;99.90;;;;;;5023896;28;20033;-84
2022/06/27 01:39:10;;;;;;;5.47;3.50;;;17.70;99.90;;;;;;5022689;28;20041;-84
2022/06/27 01:41:38;;;;;;;5.35;3.88;;;17.70;99.90;;;;;;5022520;28;20033;-84
2022/06/27 01:44:03;;;;;;;4.72;4.22;;;17.70;99.90;;;;;;5021875;28;20239;-84
2022/06/27 01:47:03;;;;;;;4.38;3.97;;;17.70;99.90;;;;;;5023173;28;20411;-84
2022/06/27 01:49:31;;;;;;;4.40;3.45;;;17.80;99.90;;;;;;5004955;28;20131;-84
2022/06/27 01:51:57;;;;;;;7.30;4.07;;;17.70;99.90;;;;;;5022752;28;20049;-83
2022/06/27 01:54:25;;;;;;;3.22;3.03;;;17.70;99.90;;;;;;5023142;28;20728;-84
2022/06/27 01:56:51;;;;;;;5.18;3.75;;;17.80;99.90;;;;;;5022666;28;20037;-84
2022/06/27 01:59:20;;;;;;;4.10;3.65;;;17.80;99.90;;;;;;5022625;28;20502;-84
2022/06/27 02:01:46;;;;;;;5.78;4.28;;;17.70;99.90;;;;;;5021847;28;20743;-84
2022/06/27 02:04:13;;;;;;;4.25;3.78;;;17.70;99.90;;;;;;5023051;28;20049;-84
2022/06/27 02:06:40;;;;;;;6.57;4.68;;;17.70;99.90;;;;;;5006120;28;20107;-84
2022/06/27 02:09:08;;;;;;;4.88;4.07;;;17.70;99.90;;;;;;5022118;28;20042;-84
2022/06/27 02:11:35;;;;;;;5.28;3.50;;;17.70;99.90;;;;;;5022553;28;20041;-84
2022/06/27 02:14:01;;;;;;;7.93;3.65;;;17.70;99.90;;;;;;5020055;28;20067;-85
2022/06/27 02:16:27;;;;;;;4.57;3.83;;;17.70;99.90;;;;;;5020939;28;20072;-85
2022/06/27 02:18:53;;;;;;;5.93;3.90;;;17.70;99.90;;;;;;5004935;28;20081;-84
2022/06/27 02:21:21;;;;;;;4.10;3.70;;;17.70;99.90;;;;;;5022273;28;20518;-84
2022/06/27 02:23:48;;;;;;;6.65;4.72;;;17.70;99.90;;;;;;5021912;28;20102;-84
2022/06/27 02:26:15;;;;;;;6.18;4.10;;;17.70;99.90;;;;;;5022162;28;20072;-83
2022/06/27 02:28:42;;;;;;;4.57;4.03;;;17.70;99.90;;;;;;5005059;28;20045;-84
2022/06/27 02:31:09;;;;;;;4.70;4.22;;;17.70;99.90;;;;;;5021895;28;20774;-84
2022/06/27 02:33:40;;;;;;;4.05;3.65;;;17.70;99.90;;;;;;5021640;28;20661;-84
2022/06/27 02:36:09;;;;;;;5.85;4.50;;;17.70;99.90;;;;;;5022485;28;20037;-84
2022/06/27 02:38:36;;;;;;;5.13;4.10;;;17.70;99.90;;;;;;5022313;28;20053;-85
2022/06/27 02:41:04;;;;;;;4.38;3.97;;;17.70;99.90;;;;;;5020699;28;20403;-84
2022/06/27 02:43:33;;;;;;;4.40;4.00;;;17.70;99.90;;;;;;5021926;28;20533;-84
2022/06/27 02:45:59;;;;;;;4.90;4.35;;;17.70;99.90;;;;;;5020794;28;20128;-84
2022/06/27 02:48:26;;;;;;;5.78;5.28;;;17.70;99.90;;;;;;5022041;28;20099;-84
2022/06/27 02:50:56;;;;;;;5.53;3.88;;;17.70;99.90;;;;;;5021944;28;20136;-83
2022/06/27 02:53:31;;;;;;;4.45;3.60;;;17.70;99.90;;;;;;5020918;28;20491;-84
2022/06/27 02:56:01;;;;;;;4.38;3.97;;;17.70;99.90;;;;;;5021469;28;20671;-84
2022/06/27 02:58:38;;;;;;;7.35;4.95;;;17.70;99.90;;;;;;5018638;28;20052;-84
2022/06/27 03:01:04;;;;;;;6.97;4.25;;;17.70;99.90;;;;;;5007572;28;20107;-83
2022/06/27 03:03:32;;;;;;;4.90;4.45;;;17.70;99.90;;;;;;5022364;28;20037;-84
2022/06/27 03:06:06;;;;;;;5.90;4.18;;;17.70;99.90;;;;;;5021382;28;20038;-84
2022/06/27 03:08:44;;;;;;;4.97;4.45;;;17.70;99.90;;;;;;5022002;28;20046;-84
2022/06/27 03:11:11;;;;;;;4.53;3.95;;;17.60;99.90;;;;;;5022265;28;20041;-84
2022/06/27 03:13:36;;;;;;;4.75;3.90;;;17.60;99.90;;;;;;5020421;28;20648;-83
2022/06/27 03:16:02;;;;;;;7.28;4.50;;;17.60;99.90;;;;;;5020082;28;20045;-84
2022/06/27 03:18:28;;;;;;;5.13;4.72;;;17.60;99.90;;;;;;5017634;28;20565;-84
2022/06/27 03:20:54;;;;;;;4.28;3.88;;;17.60;99.90;;;;;;5003690;28;20059;-84
2022/06/27 03:23:20;;;;;;;7.78;4.03;;;17.60;99.90;;;;;;5021336;28;20116;-84
2022/06/27 03:25:46;;;;;;;6.07;3.50;;;17.60;99.90;;;;;;5021145;28;20041;-84
2022/06/27 03:28:12;;;;;;;4.43;4.03;;;17.60;99.90;;;;;;5021828;28;20047;-84
2022/06/27 03:30:38;;;;;;;4.40;4.07;;;17.60;99.90;;;;;;5019158;28;20463;-84
2022/06/27 03:33:04;;;;;;;5.32;3.72;;;17.60;99.90;;;;;;5020622;28;20569;-84
2022/06/27 03:35:30;;;;;;;4.93;4.53;;;17.60;99.90;;;;;;5021185;28;20042;-84
2022/06/27 03:37:55;;;;;;;4.13;3.70;;;17.60;99.90;;;;;;5021353;28;20435;-84
2022/06/27 03:40:21;;;;;;;5.25;4.10;;;17.60;99.90;;;;;;5021356;28;20048;-84
2022/06/27 03:42:46;;;;;;;4.88;4.47;;;17.60;99.90;;;;;;5020821;28;20120;-84
2022/06/27 03:45:12;;;;;;;6.97;4.40;;;17.60;99.90;;;;;;5021169;28;20041;-84
2022/06/27 03:47:50;;;;;;;5.68;4.45;;;17.60;99.90;;;;;;5021193;28;20041;-84
2022/06/27 03:50:17;;;;;;;4.97;4.50;;;17.50;99.90;;;;;;5021071;28;20029;-83
2022/06/27 03:52:43;;;;;;;4.28;3.70;;;17.60;99.90;;;;;;5021515;28;20033;-84
2022/06/27 03:55:10;;;;;;;4.65;3.47;;;17.60;99.90;;;;;;5021039;28;20543;-84
2022/06/27 03:57:46;;;;;;;4.40;3.97;;;17.60;99.90;;;;;;5020249;28;20049;-84
2022/06/27 04:00:11;;;;;;;4.78;3.15;;;17.50;99.90;;;;;;5003772;28;20034;-83
2022/06/27 04:02:37;;;;;;;4.97;3.58;;;17.50;99.90;;;;;;5021010;28;20436;-84
2022/06/27 04:05:03;;;;;;;4.07;3.67;;;17.50;99.90;;;;;;5021823;28;20408;-84
2022/06/27 04:07:30;;;;;;;4.45;4.00;;;17.50;99.90;;;;;;5024037;28;20079;-84
2022/06/27 04:09:56;;;;;;;5.40;4.57;;;17.50;99.90;;;;;;5024445;28;20072;-84
2022/06/27 04:12:22;;;;;;;5.13;4.45;;;17.50;99.90;;;;;;5024961;28;20061;-84
2022/06/27 04:14:48;;;;;;;3.85;3.45;;;17.50;99.90;;;;;;5023544;28;20042;-84
2022/06/27 04:17:13;;;;;;;5.05;3.95;;;17.50;99.90;;;;;;5024907;28;20095;-79
2022/06/27 04:19:39;;;;;;;5.00;4.43;;;17.50;99.90;;;;;;5024604;28;20041;-84
2022/06/27 04:22:05;;;;;;;3.47;3.17;;;17.50;99.90;;;;;;5023971;28;20038;-84
2022/06/27 04:24:30;;;;;;;9.35;4.28;;;17.50;99.90;;;;;;5007067;28;20557;-84
2022/06/27 04:26:57;;;;;;;5.65;3.65;;;17.50;99.90;;;;;;5023890;28;20136;-83
2022/06/27 04:29:23;;;;;;;4.70;4.22;;;17.50;99.90;;;;;;5021728;28;20041;-84
2022/06/27 04:31:49;;;;;;;4.20;3.80;;;17.50;99.90;;;;;;5024224;28;20458;-83
2022/06/27 04:34:15;;;;;;;5.35;3.63;;;17.50;99.90;;;;;;5024254;28;20052;-83
2022/06/27 04:36:41;;;;;;;6.90;4.63;;;17.50;99.90;;;;;;5023900;28;20038;-83
2022/06/27 04:39:07;;;;;;;6.60;4.88;;;17.50;99.90;;;;;;5024277;28;20114;-83
2022/06/27 04:41:34;;;;;;;4.00;3.58;;;17.60;99.90;;;;;;5022698;28;20086;-83
2022/06/27 04:43:59;;;;;;;6.20;4.22;;;17.60;99.90;;;;;;5004397;28;20119;-83
2022/06/27 04:46:25;;;;;;;5.22;3.15;;;17.60;99.90;;;;;;5022153;28;20215;-83
2022/06/27 04:48:51;;;;;;;7.15;5.38;;;17.70;99.90;;;;;;5017542;28;20172;-84
2022/06/27 04:51:17;;;;;;;4.30;3.90;;;17.70;99.90;;;;;;5016919;28;20045;-84
2022/06/27 04:53:44;;;;;;;4.32;3.42;;;17.70;99.90;;;;;;5016976;28;20073;-83
2022/06/27 04:56:11;;;;;;;4.68;4.22;;;17.70;99.90;;;;;;5021769;28;20704;-85
2022/06/27 04:58:37;;;;;;;6.88;4.80;;;17.80;99.90;;;;;;5023209;28;20117;-84
2022/06/27 05:01:03;;;;;;;4.95;4.53;;;17.80;99.90;;;;;;5023721;28;20046;-86
2022/06/27 05:03:29;;;;;;;5.07;4.57;;;17.80;99.90;;;;;;5018029;28;20049;-86
2022/06/27 05:05:55;;;;;;;7.32;5.53;;;17.80;99.90;;;;;;5023708;28;20056;-86
2022/06/27 05:08:21;;;;;;;7.95;5.40;;;17.80;99.90;;;;;;5023753;28;20049;-85
2022/06/27 05:10:47;;;;;;;6.22;5.65;;;17.90;99.90;;;;;;5003488;28;20069;-90
2022/06/27 05:13:14;;;;;;;6.38;5.57;;;17.90;99.90;;;;;;5019593;28;20559;-91
2022/06/27 05:15:40;;;;;;;6.25;5.07;;;17.90;99.90;;;;;;5022526;28;20055;-90
2022/06/27 05:18:06;;;;;;;5.90;4.75;;;17.90;99.90;;;;;;5018873;28;20041;-87
2022/06/27 05:20:32;;;;;;;7.15;4.88;;;17.90;99.90;;;;;;5023026;28;20047;-85
2022/06/27 05:23:00;;;;;;;5.32;4.78;;;18.00;99.90;;;;;;5022020;28;20025;-87
2022/06/27 05:25:26;;;;;;;5.15;4.65;;;18.00;99.90;;;;;;5016724;28;20487;-90
2022/06/27 05:27:51;;;;;;;5.50;5.00;;;18.00;99.90;;;;;;5008553;28;20049;-90
2022/06/27 05:30:17;;;;;;;6.43;5.82;;;18.10;99.90;;;;;;5027189;28;20574;-90
2022/06/27 05:32:43;;;;;;;6.18;5.57;;;18.10;99.90;;;;;;5026731;28;20037;-92
2022/06/27 05:35:10;;;;;;;6.55;5.97;;;18.10;99.90;;;;;;5022865;28;20037;-92
2022/06/27 05:37:38;;;;;;;9.65;6.18;;;18.10;99.90;;;;;;5022827;28;20124;-91
2022/06/27 05:40:07;;;;;;;6.05;5.15;;;18.20;99.90;;;;;;5005652;28;20052;-93
2022/06/27 05:42:34;;;;;;;5.97;5.38;;;18.20;99.90;;;;;;5022852;28;20676;-90
2022/06/27 05:45:01;;;;;;;6.55;5.25;;;18.20;99.90;;;;;;5021893;28;20562;-92
2022/06/27 05:47:28;;;;;;;8.18;5.00;;;18.20;99.90;;;;;;5022121;28;20050;-89
2022/06/27 05:49:54;;;;;;;7.97;6.55;;;18.30;99.90;;;;;;5033904;28;20195;-89
2022/06/27 05:52:21;;;;;;;9.95;5.90;;;18.40;99.90;;;;;;5021398;28;20408;-89
2022/06/27 05:54:46;;;;;;;7.20;4.85;;;18.40;99.90;;;;;;5022539;28;20467;-88
2022/06/27 05:57:14;;;;;;;7.72;6.38;;;18.40;99.90;;;;;;5028417;28;20033;-89
2022/06/27 05:59:41;;;;;;;5.60;4.93;;;18.40;99.90;;;;;;5022923;28;20060;-88
2022/06/27 06:02:07;;;;;;;9.43;5.93;;;18.40;99.90;;;;;;5022937;28;20475;-90
2022/06/27 06:04:33;;;;;;;6.90;5.22;;;18.40;99.90;;;;;;5027348;28;20069;-85
2022/06/27 06:06:58;;;;;;;5.13;4.63;;;18.40;99.90;;;;;;5018132;28;20093;-83
2022/06/27 06:09:25;;;;;;;5.10;4.53;;;18.40;99.90;;;;;;5020644;28;20041;-84
2022/06/27 06:11:52;;;;;;;9.20;6.90;;;18.50;99.90;;;;;;5018410;28;20684;-83
2022/06/27 06:14:19;;;;;;;5.60;4.90;;;18.50;99.90;;;;;;5017110;28;20076;-84
2022/06/27 06:16:47;;;;;;;6.55;5.88;;;18.50;99.90;;;;;;5017683;28;20471;-84
2022/06/27 06:19:12;;;;;;;7.97;6.07;;;18.60;99.90;;;;;;5019654;28;20046;-84
2022/06/27 06:21:38;;;;;;;5.50;4.82;;;18.60;99.90;;;;;;5018866;28;20043;-84
2022/06/27 06:24:04;;;;;;;6.90;6.30;;;18.60;99.90;;;;;;5019030;28;20435;-84
2022/06/27 06:26:30;;;;;;;9.05;6.45;;;18.70;99.90;;;;;;5020032;28;20041;-83
2022/06/27 06:29:01;;;;;;;10.77;5.70;;;18.70;99.90;;;;;;5018687;28;20038;-83
2022/06/27 06:31:27;;;;;;;6.90;6.20;;;18.70;99.90;;;;;;5020790;28;20503;-84
2022/06/27 06:33:54;;;;;;;8.88;6.68;;;18.70;99.90;;;;;;5019642;28;20045;-84
2022/06/27 06:36:23;;;;;;;15.07;7.38;;;18.70;99.90;;;;;;5020284;28;20038;-85
2022/06/27 06:38:51;;;;;;;8.07;6.70;;;18.70;99.90;;;;;;5019688;28;20243;-84
2022/06/27 06:41:17;;;;;;;9.90;7.07;;;18.80;99.90;;;;;;5018900;28;20442;-84
2022/06/27 06:43:43;;;;;;;15.10;8.30;;;18.80;99.90;;;;;;5019752;28;20599;-84
2022/06/27 06:46:12;;;;;;;7.90;5.82;;;18.80;99.90;;;;;;5018831;28;20360;-83
2022/06/27 06:48:40;;;;;;;7.65;6.82;;;18.80;99.90;;;;;;5019189;28;20122;-84
2022/06/27 06:51:07;;;;;;;8.35;7.55;;;18.80;99.90;;;;;;5019708;28;20071;-84
2022/06/27 06:53:36;;;;;;;9.70;7.18;;;18.80;99.90;;;;;;5018722;28;20614;-83
2022/06/27 06:56:03;;;;;;;7.85;7.07;;;18.80;99.90;;;;;;5019682;28;20379;-84
2022/06/27 06:58:29;;;;;;;9.02;6.95;;;18.90;99.90;;;;;;5018936;28;20037;-84
2022/06/27 07:00:56;;;;;;;7.82;6.25;;;18.90;99.90;;;;;;5019843;28;20556;-84
2022/06/27 07:03:22;;;;;;;10.98;7.97;;;18.90;99.90;;;;;;5019506;28;20053;-83
2022/06/27 07:05:48;;;;;;;8.07;6.80;;;18.90;99.90;;;;;;5019551;28;20068;-83
2022/06/27 07:08:14;;;;;;;11.77;6.97;;;18.90;99.90;;;;;;5019208;28;20045;-80
2022/06/27 07:10:40;;;;;;;7.43;6.40;;;18.90;99.90;;;;;;5019499;28;20049;-84
2022/06/27 07:13:07;;;;;;;10.05;6.43;;;18.90;99.90;;;;;;5017141;28;20049;-84
2022/06/27 07:15:35;;;;;;;11.77;7.35;;;18.90;99.90;;;;;;5019384;28;20068;-84
2022/06/27 07:18:02;;;;;;;6.93;6.25;;;18.90;99.90;;;;;;5019289;28;20070;-84
2022/06/27 07:20:30;;;;;;;10.80;7.28;;;18.90;99.90;;;;;;5018275;28;20549;-84
2022/06/27 07:22:55;;;;;;;6.88;6.35;;;18.90;99.90;;;;;;5018603;28;20388;-84
2022/06/27 07:25:22;;;;;;;8.13;7.28;;;18.90;99.90;;;;;;5018912;28;20499;-84
2022/06/27 07:27:49;;;;;;;8.88;6.63;;;18.90;99.90;;;;;;5019249;28;20046;-84
2022/06/27 07:30:16;;;;;;;8.43;7.30;;;18.90;99.90;;;;;;5018391;28;20045;-84
2022/06/27 07:32:42;;;;;;;11.98;7.65;;;18.90;99.90;;;;;;5019354;28;20495;-84
2022/06/27 07:35:11;;;;;;;8.40;7.07;;;18.90;99.90;;;;;;5017905;28;20053;-84
2022/06/27 07:37:51;;;;;;;9.98;6.57;;;18.90;99.90;;;;;;5019223;28;20052;-84
2022/06/27 07:40:19;;;;;;;10.38;6.65;;;18.90;99.90;;;;;;5017046;28;20089;-83
2022/06/27 07:42:46;;;;;;;7.57;6.35;;;18.90;99.90;;;;;;5018838;28;20054;-85
2022/06/27 07:45:14;;;;;;;6.45;5.82;;;18.90;99.90;;;;;;5018274;28;20048;-84
2022/06/27 07:47:40;;;;;;;7.82;6.57;;;18.90;99.90;;;;;;5019372;28;20326;-83
2022/06/27 07:50:07;;;;;;;5.93;5.40;;;18.90;99.90;;;;;;5001221;28;20096;-84
2022/06/27 07:53:11;;;;;;;6.05;5.55;;;18.90;99.90;;;;;;5019107;28;20148;-84
2022/06/27 07:55:19;;;;;;;6.25;5.65;;;19.00;99.90;;;;;;5018538;28;20081;-84
2022/06/27 07:57:46;;;;;;;5.22;4.72;;;19.00;99.90;;;;;;5017868;28;20546;-83
2022/06/27 08:00:13;;;;;;;6.78;5.80;;;19.00;99.90;;;;;;5017949;28;20108;-84
2022/06/27 08:02:40;;;;;;;6.32;4.97;;;19.00;99.90;;;;;;4984898;28;20265;-84
2022/06/27 08:05:06;;;;;;;5.85;4.72;;;19.10;99.90;;;;;;5001112;28;20041;-83
2022/06/27 08:07:31;;;;;;;6.20;3.78;;;19.10;99.90;;;;;;5019430;28;20042;-84
2022/06/27 08:09:57;;;;;;;4.25;3.50;;;19.10;99.90;;;;;;5016589;28;20565;-83
2022/06/27 08:12:23;;;;;;;6.00;3.80;;;19.00;99.90;;;;;;5016936;28;20320;-84
2022/06/27 08:14:49;;;;;;;3.45;3.15;;;19.00;99.90;;;;;;5017980;28;20065;-84
2022/06/27 08:17:15;;;;;;;8.35;5.43;;;19.00;99.90;;;;;;5018890;28;20116;-84
2022/06/27 08:19:41;;;;;;;9.10;5.32;;;19.00;99.90;;;;;;5018939;28;20557;-84
2022/06/27 08:22:06;;;;;;;7.07;6.38;;;19.10;99.90;;;;;;5017005;28;20046;-84
2022/06/27 08:24:32;;;;;;;6.65;5.45;;;19.10;99.90;;;;;;5019241;28;20411;-84
2022/06/27 08:26:59;;;;;;;6.15;5.57;;;19.10;99.90;;;;;;5018222;28;20045;-83
2022/06/27 08:29:27;;;;;;;7.03;6.15;;;19.10;99.90;;;;;;5018075;28;20033;-83
2022/06/27 08:31:52;;;;;;;9.55;6.05;;;19.20;99.90;;;;;;5017364;28;20132;-84
2022/06/27 08:34:21;;;;;;;10.13;5.80;;;19.20;99.90;;;;;;5017058;28;20464;-84
2022/06/27 08:36:46;;;;;;;8.32;5.95;;;19.20;99.90;;;;;;5018617;28;20396;-84
2022/06/27 08:39:18;;;;;;;5.53;5.00;;;19.30;99.90;;;;;;5019233;28;20041;-84
2022/06/27 08:41:45;;;;;;;8.23;5.07;;;19.30;99.90;;;;;;5017884;28;20513;-83
2022/06/27 08:44:11;;;;;;;7.20;5.57;;;19.30;99.90;;;;;;5018557;28;20053;-84
2022/06/27 08:46:37;;;;;;;10.43;6.38;;;19.40;99.90;;;;;;5018289;28;20537;-83
2022/06/27 08:49:05;;;;;;;6.80;6.05;;;19.40;99.90;;;;;;5018338;28;20049;-84
2022/06/27 08:51:33;;;;;;;7.68;6.20;;;19.40;99.90;;;;;;5018752;28;20175;-84
2022/06/27 08:53:59;;;;;;;6.38;4.78;;;19.40;99.90;;;;;;5021630;28;20120;-84
2022/06/27 08:56:26;;;;;;;6.10;5.25;;;19.50;99.90;;;;;;5022080;28;20183;-84
2022/06/27 08:58:55;;;;;;;8.63;5.47;;;19.60;99.90;;;;;;5021506;28;20052;-84
2022/06/27 09:01:23;;;;;;;13.65;5.45;;;19.70;99.90;;;;;;5004424;28;20124;-84
2022/06/27 09:04:00;;;;;;;5.20;3.83;;;19.70;99.90;;;;;;5021276;28;20038;-84
2022/06/27 09:06:29;;;;;;;5.13;4.30;;;19.80;99.90;;;;;;5021803;28;20045;-83
2022/06/27 09:09:06;;;;;;;6.32;3.55;;;19.80;99.90;;;;;;5021401;28;20503;-84
2022/06/27 09:11:35;;;;;;;5.75;4.05;;;19.90;99.90;;;;;;5021925;28;20441;-82
2022/06/27 09:14:03;;;;;;;6.90;3.70;;;20.00;99.90;;;;;;5019733;28;20340;-84
2022/06/27 09:16:29;;;;;;;6.15;3.70;;;20.00;99.90;;;;;;5022225;28;20073;-84
2022/06/27 09:18:55;;;;;;;4.05;3.65;;;20.10;99.90;;;;;;5021666;28;20077;-84
2022/06/27 09:21:22;;;;;;;7.63;3.75;;;20.10;99.90;;;;;;5019886;28;20049;-83
2022/06/27 09:24:01;;;;;;;3.97;3.60;;;20.20;99.90;;;;;;5021282;28;20116;-84
2022/06/27 09:26:29;;;;;;;5.18;3.97;;;20.20;99.90;;;;;;5019756;28;20049;-84
2022/06/27 09:29:06;;;;;;;5.75;3.80;;;20.30;99.90;;;;;;5019712;28;20326;-84
2022/06/27 09:31:39;;;;;;;3.92;3.42;;;20.30;99.90;;;;;;5021580;28;20045;-84
2022/06/27 09:34:17;;;;;;;3.70;3.40;;;20.30;99.90;;;;;;5021009;28;20045;-83
2022/06/27 09:36:49;;;;;;;3.13;2.72;;;20.30;99.90;;;;;;5020166;28;20122;-83
2022/06/27 09:39:38;;;;;;;4.82;3.05;;;20.30;99.90;;;;;;5021820;28;20276;-84
2022/06/27 09:42:05;;;;;;;4.38;3.55;;;20.40;99.90;;;;;;5021060;28;20037;-84
2022/06/27 09:44:35;;;;;;;3.95;3.38;;;20.40;99.90;;;;;;5018914;28;20523;-83
2022/06/27 09:47:16;;;;;;;4.00;3.53;;;20.50;99.90;;;;;;5020448;28;20044;-83
2022/06/27 09:49:44;;;;;;;4.25;2.85;;;20.50;99.90;;;;;;5020379;28;20049;-83
2022/06/27 09:52:15;;;;;;;3.40;3.13;;;20.60;99.90;;;;;;5021205;28;20069;-83
2022/06/27 09:54:44;;;;;;;6.18;4.05;;;20.60;99.90;;;;;;5021615;28;20446;-84
2022/06/27 09:57:10;;;;;;;5.70;3.80;;;20.70;99.90;;;;;;5021442;28;20041;-83
2022/06/27 09:59:37;;;;;;;4.95;4.38;;;20.70;99.90;;;;;;5020536;28;20150;-84
2022/06/27 10:02:04;;;;;;;6.50;3.78;;;20.70;99.90;;;;;;5020150;28;20037;-83
2022/06/27 10:04:30;;;;;;;4.13;2.55;;;20.80;99.90;;;;;;5020785;28;20076;-84
2022/06/27 10:06:59;;;;;;;2.83;2.45;;;20.80;99.90;;;;;;5019680;28;20127;-84
2022/06/27 10:09:26;;;;;;;3.25;2.30;;;20.80;99.90;;;;;;5020546;28;20121;-84
2022/06/27 10:12:24;;;;;;;3.85;2.90;;;20.80;99.90;;;;;;5019345;28;20449;-84
2022/06/27 10:15:12;;;;;;;2.85;2.60;;;20.90;99.90;;;;;;5018563;28;20053;-84
2022/06/27 10:17:48;;;;;;;3.13;2.88;;;20.80;99.90;;;;;;5019466;28;20045;-83
2022/06/27 10:20:27;;;;;;;3.22;2.05;;;20.80;99.90;;;;;;5020543;28;20041;-83
2022/06/27 10:23:08;;;;;;;3.28;1.90;;;20.80;99.90;;;;;;5019196;28;20045;-84
2022/06/27 10:25:40;;;;;;;9.27;2.78;;;20.80;99.90;;;;;;5020594;28;20053;-84
2022/06/27 10:30:39;;;;;;;2.60;2.38;;;20.90;99.90;;;;;;5020248;28;19921;-84
2022/06/27 10:33:25;;;;;;;2.83;2.63;;;20.90;99.90;;;;;;5019536;28;20038;-83
2022/06/27 10:36:10;;;;;;;5.03;3.17;;;20.90;99.90;;;;;;5018545;28;20041;-84
2022/06/27 10:38:39;;;;;;;3.97;2.75;;;21.00;99.90;;;;;;5020426;28;20049;-84
2022/06/27 10:41:06;;;;;;;3.90;2.75;;;21.00;99.90;;;;;;5001950;28;20041;-84
2022/06/27 10:43:45;;;;;;;5.32;2.85;;;21.00;99.90;;;;;;5018228;28;20059;-84
2022/06/27 10:46:10;;;;;;;4.28;3.00;;;21.10;99.90;;;;;;5002463;28;20045;-84
2022/06/27 10:48:36;;;;;;;6.30;2.75;;;21.10;99.90;;;;;;5020172;28;20484;-84
2022/06/27 10:51:22;;;;;;;2.80;2.22;;;21.10;99.90;;;;;;5001620;28;20281;-83
2022/06/27 10:53:48;;;;;;;3.20;2.45;;;21.20;99.90;;;;;;5019296;28;20245;-84
2022/06/27 10:56:29;;;;;;;3.05;2.72;;;21.20;99.90;;;;;;5018554;28;20042;-84
2022/06/27 10:59:06;;;;;;;2.67;2.47;;;21.20;99.90;;;;;;5019115;28;20136;-84
2022/06/27 11:01:32;;;;;;;5.63;2.78;;;21.20;99.90;;;;;;5019973;28;20041;-83
2022/06/27 11:03:58;;;;;;;3.33;2.10;;;21.20;99.90;;;;;;5019700;28;20077;-84
2022/06/27 11:06:25;;;;;;;2.78;1.80;;;21.10;99.90;;;;;;5019180;28;20494;-84
2022/06/27 11:08:53;;;;;;;3.58;2.38;;;21.10;99.90;;;;;;5017400;28;20281;-84
2022/06/27 11:11:22;;;;;;;2.30;2.08;;;21.00;99.90;;;;;;5018405;28;20111;-84
2022/06/27 11:13:56;;;;;;;2.75;1.92;;;21.00;99.90;;;;;;5018183;28;20425;-84
2022/06/27 11:16:30;;;;;;;7.38;2.30;;;21.00;99.90;;;;;;5017359;28;20107;-84
2022/06/27 11:19:00;;;;;;;2.17;1.58;;;21.00;99.90;;;;;;5001934;28;20049;-84
2022/06/27 11:21:29;;;;;;;4.00;2.30;;;21.00;99.90;;;;;;5017884;28;20467;-84
2022/06/27 11:23:57;;;;;;;2.90;2.15;;;21.00;99.90;;;;;;5019019;28;20495;-84
2022/06/27 11:26:28;;;;;;;2.75;2.20;;;21.00;99.90;;;;;;5019737;28;20041;-83
2022/06/27 11:31:57;;;;;;;3.03;2.40;;;21.00;99.90;;;;;;5019967;28;20041;-84
2022/06/27 11:34:24;;;;;;;3.55;2.13;;;20.90;99.90;;;;;;5019422;28;20046;-84
2022/06/27 11:36:52;;;;;;;1.60;1.50;;;20.90;99.90;;;;;;5018821;28;20077;-84
2022/06/27 11:39:36;;;;;;;2.75;2.55;;;20.90;99.90;;;;;;5019455;28;20396;-83
2022/06/27 11:42:12;;;;;;;6.22;2.40;;;20.90;99.90;;;;;;5018892;28;20136;-83
2022/06/27 11:44:58;;;;;;;4.68;2.20;;;21.00;99.90;;;;;;5018101;28;20049;-84
2022/06/27 11:47:27;;;;;;;2.92;2.40;;;21.00;99.90;;;;;;5018951;28;20115;-84
2022/06/27 11:50:02;;;;;;;3.50;2.22;;;21.10;99.90;;;;;;5019039;28;20044;-83
2022/06/27 11:52:39;;;;;;;2.05;1.85;;;21.20;99.90;;;;;;5017738;28;20140;-84
2022/06/27 11:55:09;;;;;;;3.30;2.65;;;21.30;99.90;;;;;;5017524;28;20045;-84
2022/06/27 11:57:36;;;;;;;2.28;2.00;;;21.30;99.90;;;;;;5017154;28;20480;-84
2022/06/27 12:00:04;;;;;;;2.08;1.98;;;21.30;99.90;;;;;;5017683;28;20048;-84
2022/06/27 12:02:36;;;;;;;2.17;2.03;;;21.30;99.90;;;;;;5000677;28;20091;-84
2022/06/27 12:05:08;;;;;;;6.88;2.70;;;21.30;99.90;;;;;;5017930;28;20092;-83
2022/06/27 12:07:52;;;;;;;2.33;2.13;;;21.30;99.90;;;;;;5018749;28;20054;-84
2022/06/27 12:10:36;;;;;;;2.47;1.50;;;21.40;99.90;;;;;;5017481;28;20052;-83
2022/06/27 12:13:11;;;;;;;3.40;2.13;;;21.40;99.90;;;;;;5017465;28;20057;-83
2022/06/27 12:15:38;;;;;;;2.60;1.95;;;21.40;99.90;;;;;;5017382;28;20103;-84
2022/06/27 12:18:06;;;;;;;4.55;2.65;;;21.40;99.90;;;;;;5019139;28;20099;-84
2022/06/27 12:20:33;;;;;;;3.97;3.58;;;21.50;99.90;;;;;;5018543;28;20100;-83
2022/06/27 12:23:00;;;;;;;3.50;2.65;;;21.50;99.90;;;;;;5000769;28;20033;-84
2022/06/27 12:25:26;;;;;;;2.70;2.50;;;21.60;99.90;;;;;;5018918;28;20049;-83
2022/06/27 12:27:52;;;;;;;4.68;2.20;;;21.60;99.90;;;;;;5020000;28;20084;-84
2022/06/27 12:30:18;;;;;;;3.13;2.72;;;21.70;99.90;;;;;;5022868;28;20077;-84
2022/06/27 12:32:44;;;;;;;4.25;2.83;;;21.70;99.90;;;;;;5022325;28;20513;-84
2022/06/27 12:35:11;;;;;;;3.53;2.63;;;21.70;99.90;;;;;;5022606;28;20324;-83
2022/06/27 12:37:38;;;;;;;3.05;2.78;;;21.70;99.90;;;;;;5004437;28;20052;-84
2022/06/27 12:40:07;;;;;;;6.15;2.05;;;21.70;99.90;;;;;;5022108;28;20518;-84
2022/06/27 12:42:34;;;;;;;2.30;2.10;;;21.70;99.90;;;;;;5021321;28;20107;-84
2022/06/27 12:44:59;;;;;;;4.15;3.35;;;21.80;99.90;;;;;;5020841;28;20038;-84
2022/06/27 12:47:26;;;;;;;4.53;2.63;;;21.80;99.90;;;;;;5022477;28;20042;-84
2022/06/27 12:49:51;;;;;;;6.68;2.78;;;21.80;99.90;;;;;;5022094;28;20363;-84
2022/06/27 12:52:17;;;;;;;3.75;2.97;;;21.80;99.90;;;;;;5021863;28;20045;-84
2022/06/27 12:54:43;;;;;;;3.95;3.50;;;21.80;99.90;;;;;;5022443;28;20049;-84
2022/06/27 12:57:13;;;;;;;3.58;2.78;;;21.80;99.90;;;;;;5021920;28;20042;-83